sensor_id;sensor_type;location;lat;lon;timestamp;P1;durP1;ratioP1;P2;durP2;ratioP2
10731;SDS011;5417;42.686;23.244;2022-07-06T00:02:11;10.73;;;9.90;;
10731;SDS011;5417;42.686;23.244;2022-07-06T00:04:38;11.13;;;10.20;;
10731;SDS011;5417;42.686;23.244;2022-07-06T00:07:05;11.13;;;10.30;;
10731;SDS011;5417;42.686;23.244;2022-07-06T00:09:32;11.17;;;10.37;;
10731;SDS011;5417;42.686;23.244;2022-07-06T00:11:59;12.40;;;11.20;;
10731;SDS011;5417;42.686;23.244;2022-07-06T00:14:27;12.30;;;11.07;;
10731;SDS011;5417;42.686;23.244;2022-07-06T00:16:54;11.70;;;10.70;;
10731;SDS011;5417;42.686;23.244;2022-07-06T00:19:21;12.63;;;11.40;;
10731;SDS011;5417;42.686;23.244;2022-07-06T00:21:48;12.43;;;11.23;;
10731;SDS011;5417;42.686;23.244;2022-07-06T00:24:15;11.53;;;10.53;;
10731;SDS011;5417;42.686;23.244;2022-07-06T00:26:43;11.37;;;10.40;;
10731;SDS011;5417;42.686;23.244;2022-07-06T00:29:10;11.90;;;10.90;;
10731;SDS011;5417;42.686;23.244;2022-07-06T00:31:38;11.37;;;10.30;;
10731;SDS011;5417;42.686;23.244;2022-07-06T00:34:05;12.43;;;11.23;;
10731;SDS011;5417;42.686;23.244;2022-07-06T00:36:32;11.60;;;10.60;;
10731;SDS011;5417;42.686;23.244;2022-07-06T00:38:59;10.93;;;10.03;;
10731;SDS011;5417;42.686;23.244;2022-07-06T00:41:26;10.43;;;9.63;;
10731;SDS011;5417;42.686;23.244;2022-07-06T00:43:53;10.93;;;10.03;;
10731;SDS011;5417;42.686;23.244;2022-07-06T00:46:26;10.90;;;10.00;;
10731;SDS011;5417;42.686;23.244;2022-07-06T00:48:56;11.93;;;10.93;;
10731;SDS011;5417;42.686;23.244;2022-07-06T00:51:25;12.97;;;11.67;;
10731;SDS011;5417;42.686;23.244;2022-07-06T00:53:54;12.97;;;11.87;;
10731;SDS011;5417;42.686;23.244;2022-07-06T00:56:26;13.00;;;11.73;;
10731;SDS011;5417;42.686;23.244;2022-07-06T00:58:55;14.83;;;13.37;;
10731;SDS011;5417;42.686;23.244;2022-07-06T01:01:22;14.47;;;13.17;;
10731;SDS011;5417;42.686;23.244;2022-07-06T01:03:49;13.77;;;12.50;;
10731;SDS011;5417;42.686;23.244;2022-07-06T01:06:18;12.70;;;11.50;;
10731;SDS011;5417;42.686;23.244;2022-07-06T01:08:44;12.63;;;11.57;;
10731;SDS011;5417;42.686;23.244;2022-07-06T01:11:12;12.73;;;11.50;;
10731;SDS011;5417;42.686;23.244;2022-07-06T01:13:39;14.13;;;12.23;;
10731;SDS011;5417;42.686;23.244;2022-07-06T01:16:06;13.10;;;11.90;;
10731;SDS011;5417;42.686;23.244;2022-07-06T01:18:33;12.73;;;11.70;;
10731;SDS011;5417;42.686;23.244;2022-07-06T01:21:09;12.37;;;11.30;;
10731;SDS011;5417;42.686;23.244;2022-07-06T01:23:40;14.77;;;12.67;;
10731;SDS011;5417;42.686;23.244;2022-07-06T01:26:09;12.87;;;11.77;;
10731;SDS011;5417;42.686;23.244;2022-07-06T01:28:37;12.83;;;11.70;;
10731;SDS011;5417;42.686;23.244;2022-07-06T01:31:04;13.47;;;12.40;;
10731;SDS011;5417;42.686;23.244;2022-07-06T01:33:31;11.60;;;10.57;;
10731;SDS011;5417;42.686;23.244;2022-07-06T01:35:58;12.00;;;11.00;;
10731;SDS011;5417;42.686;23.244;2022-07-06T01:38:27;11.73;;;10.83;;
10731;SDS011;5417;42.686;23.244;2022-07-06T01:40:54;12.27;;;11.20;;
10731;SDS011;5417;42.686;23.244;2022-07-06T01:43:21;11.93;;;10.77;;
10731;SDS011;5417;42.686;23.244;2022-07-06T01:45:47;11.93;;;11.03;;
10731;SDS011;5417;42.686;23.244;2022-07-06T01:48:15;11.67;;;10.77;;
10731;SDS011;5417;42.686;23.244;2022-07-06T01:50:41;11.03;;;10.23;;
10731;SDS011;5417;42.686;23.244;2022-07-06T01:53:08;11.43;;;10.53;;
10731;SDS011;5417;42.686;23.244;2022-07-06T01:55:40;11.13;;;10.30;;
10731;SDS011;5417;42.686;23.244;2022-07-06T01:58:07;10.43;;;9.47;;
10731;SDS011;5417;42.686;23.244;2022-07-06T02:00:34;9.33;;;8.73;;
10731;SDS011;5417;42.686;23.244;2022-07-06T02:03:01;9.70;;;9.00;;
10731;SDS011;5417;42.686;23.244;2022-07-06T02:05:27;10.40;;;9.50;;
10731;SDS011;5417;42.686;23.244;2022-07-06T02:07:54;9.20;;;8.50;;
10731;SDS011;5417;42.686;23.244;2022-07-06T02:10:21;9.80;;;8.97;;
10731;SDS011;5417;42.686;23.244;2022-07-06T02:12:49;9.47;;;8.80;;
10731;SDS011;5417;42.686;23.244;2022-07-06T02:15:16;10.23;;;9.37;;
10731;SDS011;5417;42.686;23.244;2022-07-06T02:17:43;9.27;;;8.47;;
10731;SDS011;5417;42.686;23.244;2022-07-06T02:20:10;10.10;;;9.27;;
10731;SDS011;5417;42.686;23.244;2022-07-06T02:22:37;10.73;;;9.80;;
10731;SDS011;5417;42.686;23.244;2022-07-06T02:25:04;9.60;;;8.80;;
10731;SDS011;5417;42.686;23.244;2022-07-06T02:27:32;9.90;;;9.00;;
10731;SDS011;5417;42.686;23.244;2022-07-06T02:30:00;12.67;;;11.57;;
10731;SDS011;5417;42.686;23.244;2022-07-06T02:32:27;11.63;;;10.20;;
10731;SDS011;5417;42.686;23.244;2022-07-06T02:34:54;16.80;;;15.30;;
10731;SDS011;5417;42.686;23.244;2022-07-06T02:37:21;10.07;;;9.30;;
10731;SDS011;5417;42.686;23.244;2022-07-06T02:39:47;9.20;;;8.60;;
10731;SDS011;5417;42.686;23.244;2022-07-06T02:42:14;8.47;;;7.87;;
10731;SDS011;5417;42.686;23.244;2022-07-06T02:44:41;9.73;;;8.77;;
10731;SDS011;5417;42.686;23.244;2022-07-06T02:47:09;24.60;;;22.20;;
10731;SDS011;5417;42.686;23.244;2022-07-06T02:49:36;11.33;;;10.43;;
10731;SDS011;5417;42.686;23.244;2022-07-06T02:52:03;10.50;;;9.57;;
10731;SDS011;5417;42.686;23.244;2022-07-06T02:54:30;11.13;;;10.13;;
10731;SDS011;5417;42.686;23.244;2022-07-06T02:56:57;10.27;;;9.47;;
10731;SDS011;5417;42.686;23.244;2022-07-06T02:59:24;10.60;;;9.80;;
10731;SDS011;5417;42.686;23.244;2022-07-06T03:01:51;10.43;;;9.70;;
10731;SDS011;5417;42.686;23.244;2022-07-06T03:04:19;8.63;;;7.97;;
10731;SDS011;5417;42.686;23.244;2022-07-06T03:06:46;10.23;;;9.40;;
10731;SDS011;5417;42.686;23.244;2022-07-06T03:09:13;10.27;;;9.37;;
10731;SDS011;5417;42.686;23.244;2022-07-06T03:11:40;9.27;;;8.37;;
10731;SDS011;5417;42.686;23.244;2022-07-06T03:14:07;9.77;;;8.97;;
10731;SDS011;5417;42.686;23.244;2022-07-06T03:16:34;9.00;;;8.10;;
10731;SDS011;5417;42.686;23.244;2022-07-06T03:19:01;7.93;;;7.33;;
10731;SDS011;5417;42.686;23.244;2022-07-06T03:21:29;7.80;;;7.03;;
10731;SDS011;5417;42.686;23.244;2022-07-06T03:23:56;7.77;;;6.87;;
10731;SDS011;5417;42.686;23.244;2022-07-06T03:26:23;8.27;;;7.57;;
10731;SDS011;5417;42.686;23.244;2022-07-06T03:28:50;7.33;;;6.83;;
10731;SDS011;5417;42.686;23.244;2022-07-06T03:31:17;6.90;;;6.37;;
10731;SDS011;5417;42.686;23.244;2022-07-06T03:33:44;7.40;;;6.70;;
10731;SDS011;5417;42.686;23.244;2022-07-06T03:36:11;6.63;;;6.10;;
10731;SDS011;5417;42.686;23.244;2022-07-06T03:38:39;7.47;;;6.87;;
10731;SDS011;5417;42.686;23.244;2022-07-06T03:41:06;7.03;;;6.43;;
10731;SDS011;5417;42.686;23.244;2022-07-06T03:43:33;7.80;;;7.13;;
10731;SDS011;5417;42.686;23.244;2022-07-06T03:46:00;7.90;;;7.30;;
10731;SDS011;5417;42.686;23.244;2022-07-06T03:48:27;7.20;;;6.50;;
10731;SDS011;5417;42.686;23.244;2022-07-06T03:50:54;6.77;;;6.20;;
10731;SDS011;5417;42.686;23.244;2022-07-06T03:53:21;6.23;;;5.83;;
10731;SDS011;5417;42.686;23.244;2022-07-06T03:55:49;6.73;;;6.13;;
10731;SDS011;5417;42.686;23.244;2022-07-06T03:58:30;6.37;;;5.87;;
10731;SDS011;5417;42.686;23.244;2022-07-06T04:00:57;6.60;;;6.00;;
10731;SDS011;5417;42.686;23.244;2022-07-06T04:03:24;7.07;;;6.23;;
10731;SDS011;5417;42.686;23.244;2022-07-06T04:05:51;8.67;;;6.77;;
10731;SDS011;5417;42.686;23.244;2022-07-06T04:08:18;6.50;;;5.90;;
10731;SDS011;5417;42.686;23.244;2022-07-06T04:10:46;6.47;;;5.93;;
10731;SDS011;5417;42.686;23.244;2022-07-06T04:13:14;8.63;;;6.30;;
10731;SDS011;5417;42.686;23.244;2022-07-06T04:15:41;7.10;;;6.20;;
10731;SDS011;5417;42.686;23.244;2022-07-06T04:18:08;7.83;;;6.40;;
10731;SDS011;5417;42.686;23.244;2022-07-06T04:20:35;6.43;;;5.87;;
10731;SDS011;5417;42.686;23.244;2022-07-06T04:23:02;6.53;;;5.93;;
10731;SDS011;5417;42.686;23.244;2022-07-06T04:25:30;6.30;;;5.73;;
10731;SDS011;5417;42.686;23.244;2022-07-06T04:27:57;7.33;;;6.20;;
10731;SDS011;5417;42.686;23.244;2022-07-06T04:30:26;6.83;;;6.23;;
10731;SDS011;5417;42.686;23.244;2022-07-06T04:32:52;6.57;;;5.97;;
10731;SDS011;5417;42.686;23.244;2022-07-06T04:35:20;6.47;;;5.70;;
10731;SDS011;5417;42.686;23.244;2022-07-06T04:37:47;6.50;;;5.93;;
10731;SDS011;5417;42.686;23.244;2022-07-06T04:40:14;7.07;;;6.30;;
10731;SDS011;5417;42.686;23.244;2022-07-06T04:42:43;7.73;;;7.20;;
10731;SDS011;5417;42.686;23.244;2022-07-06T04:45:10;18.23;;;9.00;;
10731;SDS011;5417;42.686;23.244;2022-07-06T04:47:39;11.40;;;10.20;;
10731;SDS011;5417;42.686;23.244;2022-07-06T04:50:06;9.77;;;8.83;;
10731;SDS011;5417;42.686;23.244;2022-07-06T04:52:33;10.13;;;9.23;;
10731;SDS011;5417;42.686;23.244;2022-07-06T04:55:00;11.83;;;10.73;;
10731;SDS011;5417;42.686;23.244;2022-07-06T04:57:29;12.43;;;11.20;;
10731;SDS011;5417;42.686;23.244;2022-07-06T04:59:56;11.77;;;10.57;;
10731;SDS011;5417;42.686;23.244;2022-07-06T05:02:23;11.07;;;10.17;;
10731;SDS011;5417;42.686;23.244;2022-07-06T05:04:51;12.80;;;11.50;;
10731;SDS011;5417;42.686;23.244;2022-07-06T05:07:18;13.37;;;12.07;;
10731;SDS011;5417;42.686;23.244;2022-07-06T05:09:45;13.30;;;12.00;;
10731;SDS011;5417;42.686;23.244;2022-07-06T05:12:12;13.83;;;12.37;;
10731;SDS011;5417;42.686;23.244;2022-07-06T05:14:38;14.27;;;12.63;;
10731;SDS011;5417;42.686;23.244;2022-07-06T05:17:05;15.10;;;13.60;;
10731;SDS011;5417;42.686;23.244;2022-07-06T05:19:32;13.80;;;11.90;;
10731;SDS011;5417;42.686;23.244;2022-07-06T05:22:01;12.47;;;11.33;;
10731;SDS011;5417;42.686;23.244;2022-07-06T05:24:27;14.90;;;11.97;;
10731;SDS011;5417;42.686;23.244;2022-07-06T05:26:54;11.40;;;10.23;;
10731;SDS011;5417;42.686;23.244;2022-07-06T05:29:21;11.40;;;10.33;;
10731;SDS011;5417;42.686;23.244;2022-07-06T05:31:48;11.03;;;10.03;;
10731;SDS011;5417;42.686;23.244;2022-07-06T05:34:15;11.77;;;10.67;;
10731;SDS011;5417;42.686;23.244;2022-07-06T05:36:42;10.87;;;9.87;;
10731;SDS011;5417;42.686;23.244;2022-07-06T05:39:10;10.97;;;9.87;;
10731;SDS011;5417;42.686;23.244;2022-07-06T05:41:37;10.80;;;9.80;;
10731;SDS011;5417;42.686;23.244;2022-07-06T05:44:04;18.57;;;12.83;;
10731;SDS011;5417;42.686;23.244;2022-07-06T05:46:31;11.40;;;10.20;;
10731;SDS011;5417;42.686;23.244;2022-07-06T05:48:58;9.87;;;9.07;;
10731;SDS011;5417;42.686;23.244;2022-07-06T05:51:42;10.37;;;9.40;;
10731;SDS011;5417;42.686;23.244;2022-07-06T05:54:10;11.30;;;10.30;;
10731;SDS011;5417;42.686;23.244;2022-07-06T05:56:37;10.83;;;9.37;;
10731;SDS011;5417;42.686;23.244;2022-07-06T05:59:04;11.30;;;9.97;;
10731;SDS011;5417;42.686;23.244;2022-07-06T06:01:31;10.73;;;9.20;;
10731;SDS011;5417;42.686;23.244;2022-07-06T06:03:58;9.53;;;8.73;;
10731;SDS011;5417;42.686;23.244;2022-07-06T06:06:25;11.07;;;9.97;;
10731;SDS011;5417;42.686;23.244;2022-07-06T06:08:52;10.73;;;9.60;;
10731;SDS011;5417;42.686;23.244;2022-07-06T06:11:20;10.20;;;9.33;;
10731;SDS011;5417;42.686;23.244;2022-07-06T06:13:47;10.30;;;9.40;;
10731;SDS011;5417;42.686;23.244;2022-07-06T06:16:14;9.70;;;8.90;;
10731;SDS011;5417;42.686;23.244;2022-07-06T06:18:41;10.57;;;9.47;;
10731;SDS011;5417;42.686;23.244;2022-07-06T06:21:09;11.47;;;10.47;;
10731;SDS011;5417;42.686;23.244;2022-07-06T06:23:36;11.10;;;10.00;;
10731;SDS011;5417;42.686;23.244;2022-07-06T06:26:03;12.17;;;10.93;;
10731;SDS011;5417;42.686;23.244;2022-07-06T06:28:32;12.27;;;11.17;;
10731;SDS011;5417;42.686;23.244;2022-07-06T06:30:59;12.63;;;11.47;;
10731;SDS011;5417;42.686;23.244;2022-07-06T06:33:26;12.67;;;11.47;;
10731;SDS011;5417;42.686;23.244;2022-07-06T06:35:52;15.90;;;12.90;;
10731;SDS011;5417;42.686;23.244;2022-07-06T06:38:20;14.33;;;12.33;;
10731;SDS011;5417;42.686;23.244;2022-07-06T06:40:51;13.47;;;12.17;;
10731;SDS011;5417;42.686;23.244;2022-07-06T06:43:17;13.83;;;12.47;;
10731;SDS011;5417;42.686;23.244;2022-07-06T06:45:46;13.53;;;12.40;;
10731;SDS011;5417;42.686;23.244;2022-07-06T06:48:13;12.57;;;11.37;;
10731;SDS011;5417;42.686;23.244;2022-07-06T06:50:40;14.60;;;12.93;;
10731;SDS011;5417;42.686;23.244;2022-07-06T06:53:07;14.27;;;13.00;;
10731;SDS011;5417;42.686;23.244;2022-07-06T06:55:34;15.30;;;13.67;;
10731;SDS011;5417;42.686;23.244;2022-07-06T06:58:01;14.73;;;13.23;;
10731;SDS011;5417;42.686;23.244;2022-07-06T07:00:28;15.07;;;13.67;;
10731;SDS011;5417;42.686;23.244;2022-07-06T07:03:02;15.57;;;13.93;;
10731;SDS011;5417;42.686;23.244;2022-07-06T07:05:29;16.07;;;14.60;;
10731;SDS011;5417;42.686;23.244;2022-07-06T07:10:28;16.10;;;14.40;;
10731;SDS011;5417;42.686;23.244;2022-07-06T07:12:57;15.93;;;14.43;;
10731;SDS011;5417;42.686;23.244;2022-07-06T07:15:24;16.70;;;15.20;;
10731;SDS011;5417;42.686;23.244;2022-07-06T07:17:53;16.27;;;14.67;;
10731;SDS011;5417;42.686;23.244;2022-07-06T07:20:22;16.03;;;14.50;;
10731;SDS011;5417;42.686;23.244;2022-07-06T07:22:50;16.27;;;14.87;;
10731;SDS011;5417;42.686;23.244;2022-07-06T07:25:19;16.40;;;14.90;;
10731;SDS011;5417;42.686;23.244;2022-07-06T07:27:46;16.37;;;14.87;;
10731;SDS011;5417;42.686;23.244;2022-07-06T07:30:13;16.67;;;14.93;;
10731;SDS011;5417;42.686;23.244;2022-07-06T07:32:58;15.93;;;14.53;;
10731;SDS011;5417;42.686;23.244;2022-07-06T07:35:35;15.77;;;14.37;;
10731;SDS011;5417;42.686;23.244;2022-07-06T07:38:02;16.40;;;14.80;;
10731;SDS011;5417;42.686;23.244;2022-07-06T07:40:30;17.13;;;15.57;;
10731;SDS011;5417;42.686;23.244;2022-07-06T07:42:58;16.27;;;14.67;;
10731;SDS011;5417;42.686;23.244;2022-07-06T07:45:25;17.17;;;15.53;;
10731;SDS011;5417;42.686;23.244;2022-07-06T07:47:52;17.73;;;15.77;;
10731;SDS011;5417;42.686;23.244;2022-07-06T07:50:19;16.97;;;15.23;;
10731;SDS011;5417;42.686;23.244;2022-07-06T07:52:48;17.83;;;16.33;;
10731;SDS011;5417;42.686;23.244;2022-07-06T07:55:14;17.73;;;15.97;;
10731;SDS011;5417;42.686;23.244;2022-07-06T07:57:41;16.83;;;15.13;;
10731;SDS011;5417;42.686;23.244;2022-07-06T08:00:09;16.10;;;14.60;;
10731;SDS011;5417;42.686;23.244;2022-07-06T08:02:37;15.93;;;14.43;;
10731;SDS011;5417;42.686;23.244;2022-07-06T08:05:06;15.93;;;13.93;;
10731;SDS011;5417;42.686;23.244;2022-07-06T08:07:38;16.90;;;15.23;;
10731;SDS011;5417;42.686;23.244;2022-07-06T08:10:07;16.93;;;15.43;;
10731;SDS011;5417;42.686;23.244;2022-07-06T08:12:35;15.57;;;13.97;;
10731;SDS011;5417;42.686;23.244;2022-07-06T08:15:02;16.37;;;14.80;;
10731;SDS011;5417;42.686;23.244;2022-07-06T08:17:30;16.50;;;15.10;;
10731;SDS011;5417;42.686;23.244;2022-07-06T08:19:57;16.00;;;14.50;;
10731;SDS011;5417;42.686;23.244;2022-07-06T08:22:24;15.20;;;13.80;;
10731;SDS011;5417;42.686;23.244;2022-07-06T08:24:52;13.30;;;12.30;;
10731;SDS011;5417;42.686;23.244;2022-07-06T08:27:20;15.83;;;14.37;;
10731;SDS011;5417;42.686;23.244;2022-07-06T08:29:47;15.93;;;14.50;;
10731;SDS011;5417;42.686;23.244;2022-07-06T08:32:14;16.27;;;14.77;;
10731;SDS011;5417;42.686;23.244;2022-07-06T08:34:41;16.33;;;14.73;;
10731;SDS011;5417;42.686;23.244;2022-07-06T08:37:09;15.10;;;13.77;;
10731;SDS011;5417;42.686;23.244;2022-07-06T08:39:36;16.37;;;15.00;;
10731;SDS011;5417;42.686;23.244;2022-07-06T08:42:03;17.07;;;15.47;;
10731;SDS011;5417;42.686;23.244;2022-07-06T08:44:32;15.33;;;14.03;;
10731;SDS011;5417;42.686;23.244;2022-07-06T08:47:04;15.73;;;14.13;;
10731;SDS011;5417;42.686;23.244;2022-07-06T08:49:32;14.83;;;13.43;;
10731;SDS011;5417;42.686;23.244;2022-07-06T08:52:02;13.60;;;12.50;;
10731;SDS011;5417;42.686;23.244;2022-07-06T08:54:30;14.17;;;12.93;;
10731;SDS011;5417;42.686;23.244;2022-07-06T08:56:58;14.03;;;12.73;;
10731;SDS011;5417;42.686;23.244;2022-07-06T08:59:26;14.50;;;13.17;;
10731;SDS011;5417;42.686;23.244;2022-07-06T09:01:55;15.03;;;13.63;;
10731;SDS011;5417;42.686;23.244;2022-07-06T09:04:22;14.30;;;13.10;;
10731;SDS011;5417;42.686;23.244;2022-07-06T09:06:49;14.33;;;13.07;;
10731;SDS011;5417;42.686;23.244;2022-07-06T09:09:18;13.87;;;12.63;;
10731;SDS011;5417;42.686;23.244;2022-07-06T09:11:47;13.53;;;12.13;;
10731;SDS011;5417;42.686;23.244;2022-07-06T09:14:15;13.33;;;12.00;;
10731;SDS011;5417;42.686;23.244;2022-07-06T09:16:42;14.77;;;13.40;;
10731;SDS011;5417;42.686;23.244;2022-07-06T09:19:11;14.50;;;13.13;;
10731;SDS011;5417;42.686;23.244;2022-07-06T09:21:39;15.07;;;13.83;;
10731;SDS011;5417;42.686;23.244;2022-07-06T09:24:08;14.43;;;13.23;;
10731;SDS011;5417;42.686;23.244;2022-07-06T09:26:36;13.83;;;12.60;;
10731;SDS011;5417;42.686;23.244;2022-07-06T09:29:03;13.90;;;12.90;;
10731;SDS011;5417;42.686;23.244;2022-07-06T09:31:31;15.83;;;14.33;;
10731;SDS011;5417;42.686;23.244;2022-07-06T09:33:59;16.63;;;15.23;;
10731;SDS011;5417;42.686;23.244;2022-07-06T09:36:38;16.23;;;14.77;;
10731;SDS011;5417;42.686;23.244;2022-07-06T09:39:15;17.13;;;15.40;;
10731;SDS011;5417;42.686;23.244;2022-07-06T09:41:47;18.23;;;16.10;;
10731;SDS011;5417;42.686;23.244;2022-07-06T09:44:18;17.37;;;15.77;;
10731;SDS011;5417;42.686;23.244;2022-07-06T09:46:48;17.07;;;15.47;;
10731;SDS011;5417;42.686;23.244;2022-07-06T09:49:16;15.93;;;14.63;;
10731;SDS011;5417;42.686;23.244;2022-07-06T09:51:46;16.17;;;14.67;;
10731;SDS011;5417;42.686;23.244;2022-07-06T09:54:14;16.30;;;14.97;;
10731;SDS011;5417;42.686;23.244;2022-07-06T09:56:42;16.93;;;15.43;;
10731;SDS011;5417;42.686;23.244;2022-07-06T09:59:14;16.80;;;15.30;;
10731;SDS011;5417;42.686;23.244;2022-07-06T10:01:42;17.03;;;15.23;;
10731;SDS011;5417;42.686;23.244;2022-07-06T10:04:10;16.23;;;14.83;;
10731;SDS011;5417;42.686;23.244;2022-07-06T10:06:38;16.50;;;14.93;;
10731;SDS011;5417;42.686;23.244;2022-07-06T10:09:07;16.27;;;14.83;;
10731;SDS011;5417;42.686;23.244;2022-07-06T10:11:37;16.90;;;15.33;;
10731;SDS011;5417;42.686;23.244;2022-07-06T10:14:06;16.13;;;14.67;;
10731;SDS011;5417;42.686;23.244;2022-07-06T10:16:34;17.43;;;15.83;;
10731;SDS011;5417;42.686;23.244;2022-07-06T10:19:05;18.07;;;16.43;;
10731;SDS011;5417;42.686;23.244;2022-07-06T10:21:33;16.73;;;15.13;;
10731;SDS011;5417;42.686;23.244;2022-07-06T10:24:03;18.47;;;16.67;;
10731;SDS011;5417;42.686;23.244;2022-07-06T10:26:33;17.80;;;16.30;;
10731;SDS011;5417;42.686;23.244;2022-07-06T10:29:01;15.77;;;14.27;;
10731;SDS011;5417;42.686;23.244;2022-07-06T10:31:29;15.50;;;14.20;;
10731;SDS011;5417;42.686;23.244;2022-07-06T10:33:59;15.87;;;14.17;;
10731;SDS011;5417;42.686;23.244;2022-07-06T10:36:27;16.50;;;14.87;;
10731;SDS011;5417;42.686;23.244;2022-07-06T10:38:55;15.77;;;14.33;;
10731;SDS011;5417;42.686;23.244;2022-07-06T10:41:29;14.83;;;13.47;;
10731;SDS011;5417;42.686;23.244;2022-07-06T10:43:58;14.43;;;13.23;;
10731;SDS011;5417;42.686;23.244;2022-07-06T10:46:41;15.87;;;14.53;;
10731;SDS011;5417;42.686;23.244;2022-07-06T10:49:16;16.40;;;15.00;;
10731;SDS011;5417;42.686;23.244;2022-07-06T10:51:43;15.90;;;14.50;;
10731;SDS011;5417;42.686;23.244;2022-07-06T10:54:10;15.57;;;14.13;;
10731;SDS011;5417;42.686;23.244;2022-07-06T10:56:38;15.73;;;14.43;;
10731;SDS011;5417;42.686;23.244;2022-07-06T10:59:10;15.23;;;13.83;;
10731;SDS011;5417;42.686;23.244;2022-07-06T11:01:38;15.70;;;14.40;;
10731;SDS011;5417;42.686;23.244;2022-07-06T11:04:05;18.20;;;16.60;;
10731;SDS011;5417;42.686;23.244;2022-07-06T11:06:36;18.80;;;17.30;;
10731;SDS011;5417;42.686;23.244;2022-07-06T11:09:07;20.00;;;18.13;;
10731;SDS011;5417;42.686;23.244;2022-07-06T11:11:38;19.43;;;17.67;;
10731;SDS011;5417;42.686;23.244;2022-07-06T11:14:11;18.90;;;17.37;;
10731;SDS011;5417;42.686;23.244;2022-07-06T11:19:28;15.90;;;14.60;;
10731;SDS011;5417;42.686;23.244;2022-07-06T11:21:57;16.60;;;15.30;;
10731;SDS011;5417;42.686;23.244;2022-07-06T11:24:25;16.97;;;15.47;;
10731;SDS011;5417;42.686;23.244;2022-07-06T11:26:56;16.10;;;14.70;;
10731;SDS011;5417;42.686;23.244;2022-07-06T11:29:25;18.67;;;16.97;;
10731;SDS011;5417;42.686;23.244;2022-07-06T11:31:54;17.40;;;15.80;;
10731;SDS011;5417;42.686;23.244;2022-07-06T11:34:24;18.07;;;16.33;;
10731;SDS011;5417;42.686;23.244;2022-07-06T11:36:54;18.60;;;16.73;;
10731;SDS011;5417;42.686;23.244;2022-07-06T11:39:25;16.47;;;14.97;;
10731;SDS011;5417;42.686;23.244;2022-07-06T11:41:54;16.50;;;15.10;;
10731;SDS011;5417;42.686;23.244;2022-07-06T11:44:28;17.20;;;15.80;;
10731;SDS011;5417;42.686;23.244;2022-07-06T11:46:56;17.33;;;15.73;;
10731;SDS011;5417;42.686;23.244;2022-07-06T11:49:26;18.90;;;17.27;;
10731;SDS011;5417;42.686;23.244;2022-07-06T11:51:53;18.37;;;16.80;;
10731;SDS011;5417;42.686;23.244;2022-07-06T11:54:23;17.80;;;16.00;;
10731;SDS011;5417;42.686;23.244;2022-07-06T11:56:51;16.17;;;14.90;;
10731;SDS011;5417;42.686;23.244;2022-07-06T11:59:20;17.67;;;16.17;;
10731;SDS011;5417;42.686;23.244;2022-07-06T12:01:56;17.47;;;16.00;;
10731;SDS011;5417;42.686;23.244;2022-07-06T12:04:24;17.30;;;15.70;;
10731;SDS011;5417;42.686;23.244;2022-07-06T12:06:51;16.97;;;15.57;;
10731;SDS011;5417;42.686;23.244;2022-07-06T12:09:19;15.50;;;14.40;;
10731;SDS011;5417;42.686;23.244;2022-07-06T12:11:46;14.77;;;13.53;;
10731;SDS011;5417;42.686;23.244;2022-07-06T12:14:14;14.63;;;13.33;;
10731;SDS011;5417;42.686;23.244;2022-07-06T12:16:42;13.33;;;12.43;;
10731;SDS011;5417;42.686;23.244;2022-07-06T12:19:11;12.50;;;11.57;;
10731;SDS011;5417;42.686;23.244;2022-07-06T12:21:45;12.33;;;11.43;;
10731;SDS011;5417;42.686;23.244;2022-07-06T12:24:19;12.73;;;11.67;;
10731;SDS011;5417;42.686;23.244;2022-07-06T12:26:47;11.73;;;10.97;;
10731;SDS011;5417;42.686;23.244;2022-07-06T12:29:14;12.57;;;11.60;;
10731;SDS011;5417;42.686;23.244;2022-07-06T12:31:43;12.43;;;11.53;;
10731;SDS011;5417;42.686;23.244;2022-07-06T12:34:16;12.97;;;11.83;;
10731;SDS011;5417;42.686;23.244;2022-07-06T12:36:44;12.23;;;11.23;;
10731;SDS011;5417;42.686;23.244;2022-07-06T12:39:19;10.17;;;9.47;;
10731;SDS011;5417;42.686;23.244;2022-07-06T12:44:18;12.97;;;11.87;;
10731;SDS011;5417;42.686;23.244;2022-07-06T12:46:48;11.27;;;10.47;;
10731;SDS011;5417;42.686;23.244;2022-07-06T12:49:18;11.60;;;10.80;;
10731;SDS011;5417;42.686;23.244;2022-07-06T12:51:48;10.40;;;9.67;;
10731;SDS011;5417;42.686;23.244;2022-07-06T12:54:19;10.57;;;9.77;;
10731;SDS011;5417;42.686;23.244;2022-07-06T12:56:55;10.67;;;9.93;;
10731;SDS011;5417;42.686;23.244;2022-07-06T12:59:26;8.43;;;7.83;;
10731;SDS011;5417;42.686;23.244;2022-07-06T13:01:54;8.70;;;7.90;;
10731;SDS011;5417;42.686;23.244;2022-07-06T13:04:23;8.53;;;8.03;;
10731;SDS011;5417;42.686;23.244;2022-07-06T13:06:53;8.10;;;7.50;;
10731;SDS011;5417;42.686;23.244;2022-07-06T13:09:20;8.47;;;7.87;;
10731;SDS011;5417;42.686;23.244;2022-07-06T13:11:47;6.80;;;6.40;;
10731;SDS011;5417;42.686;23.244;2022-07-06T13:14:18;7.33;;;6.70;;
10731;SDS011;5417;42.686;23.244;2022-07-06T13:16:45;7.60;;;7.20;;
10731;SDS011;5417;42.686;23.244;2022-07-06T13:19:15;7.00;;;6.50;;
10731;SDS011;5417;42.686;23.244;2022-07-06T13:21:43;7.20;;;6.60;;
10731;SDS011;5417;42.686;23.244;2022-07-06T13:24:11;7.07;;;6.23;;
10731;SDS011;5417;42.686;23.244;2022-07-06T13:26:38;6.40;;;5.90;;
10731;SDS011;5417;42.686;23.244;2022-07-06T13:29:06;6.73;;;6.33;;
10731;SDS011;5417;42.686;23.244;2022-07-06T13:31:32;6.23;;;5.93;;
10731;SDS011;5417;42.686;23.244;2022-07-06T13:34:00;7.20;;;6.20;;
10731;SDS011;5417;42.686;23.244;2022-07-06T13:36:27;4.67;;;4.47;;
10731;SDS011;5417;42.686;23.244;2022-07-06T13:38:55;5.10;;;4.80;;
10731;SDS011;5417;42.686;23.244;2022-07-06T13:41:24;5.30;;;4.90;;
10731;SDS011;5417;42.686;23.244;2022-07-06T13:43:51;4.27;;;3.97;;
10731;SDS011;5417;42.686;23.244;2022-07-06T13:46:18;4.27;;;4.07;;
10731;SDS011;5417;42.686;23.244;2022-07-06T13:48:46;4.70;;;4.40;;
10731;SDS011;5417;42.686;23.244;2022-07-06T13:51:13;5.43;;;5.03;;
10731;SDS011;5417;42.686;23.244;2022-07-06T13:53:40;4.17;;;3.90;;
10731;SDS011;5417;42.686;23.244;2022-07-06T13:56:11;4.83;;;4.43;;
10731;SDS011;5417;42.686;23.244;2022-07-06T13:58:40;5.33;;;5.00;;
10731;SDS011;5417;42.686;23.244;2022-07-06T14:01:07;4.03;;;3.83;;
10731;SDS011;5417;42.686;23.244;2022-07-06T14:03:33;3.37;;;3.27;;
10731;SDS011;5417;42.686;23.244;2022-07-06T14:06:03;4.07;;;3.60;;
10731;SDS011;5417;42.686;23.244;2022-07-06T14:08:32;3.67;;;3.47;;
10731;SDS011;5417;42.686;23.244;2022-07-06T14:10:59;4.10;;;3.80;;
10731;SDS011;5417;42.686;23.244;2022-07-06T14:13:27;4.13;;;3.80;;
10731;SDS011;5417;42.686;23.244;2022-07-06T14:15:55;3.93;;;3.60;;
10731;SDS011;5417;42.686;23.244;2022-07-06T14:20:54;3.73;;;3.43;;
10731;SDS011;5417;42.686;23.244;2022-07-06T14:23:21;4.53;;;4.03;;
10731;SDS011;5417;42.686;23.244;2022-07-06T14:25:48;4.13;;;3.93;;
10731;SDS011;5417;42.686;23.244;2022-07-06T14:28:16;3.73;;;3.63;;
10731;SDS011;5417;42.686;23.244;2022-07-06T14:30:45;4.10;;;3.90;;
10731;SDS011;5417;42.686;23.244;2022-07-06T14:33:12;3.97;;;3.77;;
10731;SDS011;5417;42.686;23.244;2022-07-06T14:35:40;3.73;;;3.50;;
10731;SDS011;5417;42.686;23.244;2022-07-06T14:38:09;3.73;;;3.47;;
10731;SDS011;5417;42.686;23.244;2022-07-06T14:40:40;4.20;;;4.00;;
10731;SDS011;5417;42.686;23.244;2022-07-06T14:43:07;4.30;;;3.70;;
10731;SDS011;5417;42.686;23.244;2022-07-06T14:45:34;3.30;;;3.20;;
10731;SDS011;5417;42.686;23.244;2022-07-06T14:48:08;3.20;;;3.10;;